Time;durP1;ratioP1;P1;durP2;ratioP2;P2;SDS_P1;SDS_P2;PMS_P1;PMS_P2;Temp;Humidity;BMP_temperature;BMP_pressure;BME280_temperature;BME280_humidity;BME280_pressure;Samples;Min_cycle;Max_cycle;Signal;HPM_P1;HPM_P2
2021/01/12 00:02:03;;;;;;;32.20;15.10;;;-1.80;68.30;;;;;;5073079;28;20048;-73
2021/01/12 00:04:32;;;;;;;32.63;14.15;;;-1.90;68.80;;;;;;5073228;28;20079;-73
2021/01/12 00:06:57;;;;;;;26.50;13.30;;;-1.80;68.90;;;;;;5073209;28;20017;-73
2021/01/12 00:09:23;;;;;;;17.77;8.90;;;-1.80;68.90;;;;;;5055253;28;20567;-73
2021/01/12 00:11:51;;;;;;;19.92;10.32;;;-1.70;69.30;;;;;;5073348;28;20071;-74
2021/01/12 00:14:32;;;;;;;18.70;10.05;;;-1.60;69.90;;;;;;5073387;28;20032;-72
2021/01/12 00:17:03;;;;;;;22.83;10.50;;;-1.60;70.00;;;;;;5074477;28;20032;-72
2021/01/12 00:19:29;;;;;;;20.35;10.60;;;-1.60;70.00;;;;;;5058997;28;20434;-72
2021/01/12 00:21:55;;;;;;;24.95;11.23;;;-1.60;70.00;;;;;;5076419;28;20112;-73
2021/01/12 00:24:21;;;;;;;21.63;10.95;;;-1.60;70.20;;;;;;5078685;28;20491;-74
2021/01/12 00:26:47;;;;;;;22.38;10.18;;;-1.60;70.20;;;;;;5077337;28;20115;-74
2021/01/12 00:29:13;;;;;;;17.30;8.10;;;-1.60;70.30;;;;;;5075038;28;20032;-75
2021/01/12 00:31:42;;;;;;;21.65;10.88;;;-1.60;70.70;;;;;;5073684;28;20025;-76
2021/01/12 00:34:08;;;;;;;20.52;10.02;;;-1.60;71.50;;;;;;5073035;28;20469;-76
2021/01/12 00:36:51;;;;;;;18.63;9.38;;;-1.60;71.50;;;;;;5054933;28;20400;-73
2021/01/12 00:39:18;;;;;;;20.35;9.52;;;-1.60;71.60;;;;;;5072975;28;20035;-72
2021/01/12 00:41:48;;;;;;;17.98;9.23;;;-1.50;71.80;;;;;;5073013;28;20067;-72
2021/01/12 00:44:14;;;;;;;18.02;9.25;;;-1.60;72.10;;;;;;5072832;28;20103;-72
2021/01/12 00:46:43;;;;;;;18.20;8.65;;;-1.40;72.30;;;;;;5072736;28;20060;-72
2021/01/12 00:49:09;;;;;;;16.75;8.07;;;-1.40;72.40;;;;;;5073227;28;20107;-72
2021/01/12 00:51:36;;;;;;;14.60;7.43;;;-1.40;72.40;;;;;;5072791;28;20024;-73
2021/01/12 00:54:04;;;;;;;15.45;7.68;;;-1.30;72.50;;;;;;5073015;28;20120;-72
2021/01/12 00:56:29;;;;;;;13.52;6.78;;;-1.30;72.90;;;;;;5072841;28;20409;-75
2021/01/12 00:58:55;;;;;;;13.50;6.32;;;-1.20;73.30;;;;;;5073129;28;20067;-75
2021/01/12 01:01:20;;;;;;;13.57;6.05;;;-1.10;73.90;;;;;;5075477;28;20044;-73
2021/01/12 01:03:46;;;;;;;9.98;5.00;;;-1.10;73.90;;;;;;5076490;28;20039;-73
2021/01/12 01:06:11;;;;;;;10.50;5.43;;;-1.00;73.90;;;;;;5076532;28;20477;-73
2021/01/12 01:08:37;;;;;;;13.20;6.38;;;-0.90;73.90;;;;;;5058393;28;20029;-73
2021/01/12 01:11:03;;;;;;;14.35;5.78;;;-0.80;73.70;;;;;;5076573;28;20025;-80
2021/01/12 01:13:29;;;;;;;8.93;5.03;;;-0.80;73.50;;;;;;5076622;28;20025;-76
2021/01/12 01:15:54;;;;;;;10.93;5.53;;;-0.80;73.60;;;;;;5076649;28;20027;-76
2021/01/12 01:18:20;;;;;;;15.65;5.88;;;-0.60;74.00;;;;;;5076422;28;20036;-77
2021/01/12 01:20:45;;;;;;;11.60;6.13;;;-0.60;73.50;;;;;;5076304;28;20074;-77
2021/01/12 01:23:11;;;;;;;11.52;6.13;;;-0.50;74.00;;;;;;5076200;28;20565;-73
2021/01/12 01:25:36;;;;;;;11.60;5.57;;;-0.50;72.70;;;;;;5077068;28;20061;-73
2021/01/12 01:28:02;;;;;;;9.57;4.40;;;-0.50;72.50;;;;;;5079410;28;20035;-73
2021/01/12 01:30:28;;;;;;;10.93;5.82;;;-0.60;72.30;;;;;;5078406;28;20032;-73
2021/01/12 01:32:53;;;;;;;9.07;5.03;;;-0.50;72.50;;;;;;5081934;28;20017;-73
2021/01/12 01:35:19;;;;;;;9.00;5.07;;;-0.50;72.50;;;;;;5077306;28;20048;-72
2021/01/12 01:37:44;;;;;;;9.27;5.03;;;-0.50;72.50;;;;;;5077653;28;20028;-73
2021/01/12 01:40:10;;;;;;;8.85;4.82;;;-0.50;72.60;;;;;;5076292;28;20028;-76
2021/01/12 01:42:36;;;;;;;6.82;3.92;;;-0.50;72.50;;;;;;5057632;28;20028;-77
2021/01/12 01:45:07;;;;;;;7.50;3.70;;;-0.40;72.20;;;;;;5076091;28;20025;-72
2021/01/12 01:47:33;;;;;;;7.53;3.85;;;-0.40;71.90;;;;;;5075646;28;20048;-72
2021/01/12 01:49:58;;;;;;;3.97;2.67;;;-0.40;71.30;;;;;;5075669;28;20103;-72
2021/01/12 01:52:25;;;;;;;5.32;2.80;;;-0.30;70.40;;;;;;5075591;28;20498;-72
2021/01/12 01:54:54;;;;;;;3.83;2.22;;;-0.20;69.40;;;;;;5076008;28;20413;-72
2021/01/12 01:57:20;;;;;;;4.40;2.67;;;0.00;68.60;;;;;;5075605;28;20032;-79
2021/01/12 01:59:45;;;;;;;3.08;2.10;;;0.10;67.70;;;;;;5075546;28;20024;-73
2021/01/12 02:02:12;;;;;;;4.45;2.50;;;0.20;66.80;;;;;;5075132;28;20079;-75
2021/01/12 02:04:40;;;;;;;3.78;2.38;;;0.20;66.40;;;;;;5075294;28;20059;-76
2021/01/12 02:07:08;;;;;;;3.03;2.25;;;0.30;67.00;;;;;;5075232;28;20025;-72
2021/01/12 02:09:40;;;;;;;4.22;2.17;;;0.40;65.60;;;;;;5075110;28;20021;-81
2021/01/12 02:12:11;;;;;;;5.15;3.08;;;0.40;65.20;;;;;;5074874;28;20017;-82
2021/01/12 02:14:40;;;;;;;3.63;2.40;;;0.40;64.50;;;;;;5075229;28;20029;-82
2021/01/12 02:17:07;;;;;;;3.47;2.25;;;0.40;63.40;;;;;;5074983;28;20025;-83
2021/01/12 02:19:33;;;;;;;4.18;2.58;;;0.40;63.20;;;;;;5075201;28;20024;-83
2021/01/12 02:22:03;;;;;;;4.45;2.40;;;0.50;63.40;;;;;;5074918;28;20021;-82
2021/01/12 02:24:30;;;;;;;4.45;2.40;;;0.50;63.70;;;;;;5074982;28;20384;-82
2021/01/12 02:26:56;;;;;;;7.38;3.70;;;0.50;63.20;;;;;;5074863;28;20016;-82
2021/01/12 02:29:24;;;;;;;5.93;3.17;;;0.50;62.90;;;;;;5074841;28;20072;-82
2021/01/12 02:31:51;;;;;;;4.32;2.00;;;0.40;63.10;;;;;;5074762;28;20031;-82
2021/01/12 02:34:18;;;;;;;3.03;2.13;;;0.50;64.40;;;;;;5074648;28;20024;-81
2021/01/12 02:36:46;;;;;;;6.60;2.97;;;0.50;65.00;;;;;;5074635;28;20507;-82
2021/01/12 02:39:12;;;;;;;7.07;3.53;;;0.50;64.70;;;;;;5074898;28;20055;-80
2021/01/12 02:41:38;;;;;;;14.02;7.05;;;0.40;64.40;;;;;;5074681;28;20036;-82
2021/01/12 02:44:05;;;;;;;15.55;7.00;;;0.30;64.70;;;;;;5074500;28;20518;-83
2021/01/12 02:46:31;;;;;;;16.75;8.00;;;0.30;65.10;;;;;;5074436;28;20044;-82
2021/01/12 02:48:57;;;;;;;20.00;9.50;;;0.30;65.90;;;;;;5074844;28;20048;-82
2021/01/12 02:51:22;;;;;;;22.15;9.98;;;0.30;66.20;;;;;;5074743;28;20017;-83
2021/01/12 02:53:48;;;;;;;21.02;10.40;;;0.20;66.40;;;;;;5074644;28;20035;-81
2021/01/12 02:56:21;;;;;;;22.50;10.23;;;0.10;66.70;;;;;;5075939;28;20035;-80
2021/01/12 02:58:46;;;;;;;21.20;10.80;;;0.10;67.30;;;;;;5080283;28;20072;-80
2021/01/12 03:01:12;;;;;;;19.80;8.88;;;0.00;67.70;;;;;;5080036;28;20049;-82
2021/01/12 03:03:37;;;;;;;14.32;6.78;;;0.00;68.20;;;;;;5078405;28;20047;-81
2021/01/12 03:06:03;;;;;;;13.45;7.45;;;0.00;68.60;;;;;;5093080;28;20013;-76
2021/01/12 03:08:28;;;;;;;14.23;6.57;;;0.10;68.80;;;;;;5099452;28;20024;-82
2021/01/12 03:10:54;;;;;;;14.77;6.65;;;0.20;68.80;;;;;;5099282;28;20036;-76
2021/01/12 03:13:19;;;;;;;3.55;1.88;;;0.10;68.80;;;;;;5080683;28;20032;-79
2021/01/12 03:15:45;;;;;;;5.03;3.08;;;0.20;69.10;;;;;;5074737;28;20070;-79
2021/01/12 03:18:11;;;;;;;7.60;2.83;;;0.30;69.00;;;;;;5075424;28;20048;-81
2021/01/12 03:20:36;;;;;;;4.03;2.47;;;0.40;68.60;;;;;;5074163;28;20054;-80
2021/01/12 03:23:02;;;;;;;3.13;2.10;;;0.40;68.40;;;;;;5073029;28;20036;-80
2021/01/12 03:25:28;;;;;;;3.72;2.05;;;0.60;68.10;;;;;;5074024;28;20495;-81
2021/01/12 03:27:54;;;;;;;3.72;2.00;;;0.60;67.70;;;;;;5074106;28;20060;-83
2021/01/12 03:30:20;;;;;;;4.88;2.53;;;0.70;67.70;;;;;;5073790;28;20538;-82
2021/01/12 03:32:46;;;;;;;3.15;2.05;;;0.70;67.60;;;;;;5073667;28;20086;-81
2021/01/12 03:35:12;;;;;;;5.10;1.95;;;0.80;67.40;;;;;;5073483;28;20028;-80
2021/01/12 03:37:37;;;;;;;4.35;2.22;;;0.80;67.10;;;;;;5073458;28;20077;-81
2021/01/12 03:40:05;;;;;;;5.03;2.90;;;0.80;66.90;;;;;;5073545;28;20029;-82
2021/01/12 03:42:31;;;;;;;4.97;2.70;;;0.80;66.90;;;;;;5073283;28;20036;-81
2021/01/12 03:44:56;;;;;;;4.22;2.40;;;0.90;66.70;;;;;;5073464;28;20495;-81
2021/01/12 03:47:22;;;;;;;4.10;2.72;;;0.80;66.60;;;;;;5073399;28;20383;-82
2021/01/12 03:49:48;;;;;;;6.10;2.55;;;0.90;66.70;;;;;;5073374;28;20027;-82
2021/01/12 03:52:13;;;;;;;7.22;3.40;;;0.90;66.70;;;;;;5073291;28;20425;-79
2021/01/12 03:54:39;;;;;;;8.13;3.40;;;0.90;67.00;;;;;;5073447;28;20028;-72
2021/01/12 03:57:04;;;;;;;6.15;3.30;;;0.90;67.10;;;;;;5073081;28;20035;-72
2021/01/12 03:59:30;;;;;;;5.80;3.00;;;0.80;67.10;;;;;;5073468;28;20056;-72
2021/01/12 04:01:55;;;;;;;9.05;4.13;;;0.80;67.20;;;;;;5072959;28;20044;-72
2021/01/12 04:04:21;;;;;;;7.20;4.10;;;0.70;67.10;;;;;;5073099;28;20024;-74
2021/01/12 04:06:46;;;;;;;8.98;4.13;;;0.70;67.40;;;;;;5073137;28;20032;-72
2021/01/12 04:09:12;;;;;;;7.13;3.85;;;0.70;67.80;;;;;;5073169;28;20120;-72
2021/01/12 04:11:38;;;;;;;7.75;3.75;;;0.70;68.20;;;;;;5073135;28;20084;-72
2021/01/12 04:14:06;;;;;;;8.50;4.05;;;0.60;68.20;;;;;;5073245;28;20029;-72
2021/01/12 04:16:32;;;;;;;6.97;3.55;;;0.70;68.50;;;;;;5073032;28;20043;-72
2021/01/12 04:18:57;;;;;;;7.25;3.90;;;0.70;68.60;;;;;;5073019;28;20029;-73
2021/01/12 04:21:23;;;;;;;8.00;3.30;;;0.70;68.90;;;;;;5073008;28;20037;-74
2021/01/12 04:23:48;;;;;;;5.00;3.38;;;0.70;69.50;;;;;;5072997;28;20481;-78
2021/01/12 04:26:14;;;;;;;6.90;3.85;;;0.70;69.80;;;;;;5073253;28;20020;-76
2021/01/12 04:28:39;;;;;;;7.63;3.22;;;0.70;70.00;;;;;;5073313;28;20025;-78
2021/01/12 04:31:05;;;;;;;5.57;3.28;;;0.80;69.80;;;;;;5073183;28;20103;-77
2021/01/12 04:33:30;;;;;;;5.88;3.38;;;0.80;69.70;;;;;;5073079;28;20481;-79
2021/01/12 04:35:56;;;;;;;7.68;3.88;;;0.80;69.60;;;;;;5077333;28;20108;-76
2021/01/12 04:38:21;;;;;;;5.50;3.15;;;0.80;69.60;;;;;;5076946;28;20028;-73
2021/01/12 04:40:47;;;;;;;7.22;4.10;;;0.80;69.60;;;;;;5077176;28;20052;-81
2021/01/12 04:43:13;;;;;;;4.43;2.67;;;0.90;69.70;;;;;;5076541;28;20500;-76
2021/01/12 04:45:39;;;;;;;4.10;2.58;;;0.90;69.80;;;;;;5076660;28;20082;-75
2021/01/12 04:48:06;;;;;;;5.00;2.58;;;1.00;71.00;;;;;;5058586;28;20485;-77
2021/01/12 04:50:32;;;;;;;4.55;2.55;;;1.10;71.20;;;;;;5076453;28;20056;-77
2021/01/12 04:52:57;;;;;;;2.85;2.00;;;1.10;71.80;;;;;;5076655;28;20063;-77
2021/01/12 04:55:23;;;;;;;4.60;2.17;;;1.20;72.10;;;;;;5076423;28;20052;-83
2021/01/12 04:57:49;;;;;;;3.67;2.22;;;1.30;72.10;;;;;;5076357;28;20035;-76
2021/01/12 05:00:17;;;;;;;5.10;2.70;;;1.30;71.80;;;;;;5076447;28;20389;-73
2021/01/12 05:03:04;;;;;;;3.03;2.10;;;1.40;71.50;;;;;;5076390;28;20036;-75
2021/01/12 05:05:31;;;;;;;3.33;2.22;;;1.40;71.50;;;;;;5076348;28;20430;-78
2021/01/12 05:08:05;;;;;;;4.47;2.35;;;1.40;71.50;;;;;;5077115;28;20028;-76
2021/01/12 05:10:37;;;;;;;4.28;2.50;;;1.40;71.60;;;;;;5076920;28;20021;-76
2021/01/12 05:13:08;;;;;;;4.00;2.30;;;1.40;71.60;;;;;;5077123;28;20353;-74
2021/01/12 05:15:36;;;;;;;5.93;3.10;;;1.40;71.50;;;;;;5076413;28;20016;-75
2021/01/12 05:18:05;;;;;;;2.42;1.90;;;1.50;71.50;;;;;;5076126;28;20024;-75
2021/01/12 05:20:48;;;;;;;4.13;2.50;;;1.50;71.40;;;;;;5075982;28;20464;-77
2021/01/12 05:23:24;;;;;;;4.80;2.67;;;1.60;71.30;;;;;;5076082;28;20044;-77
2021/01/12 05:25:52;;;;;;;5.32;2.53;;;1.70;71.30;;;;;;5075953;28;20012;-79
2021/01/12 05:28:18;;;;;;;3.97;2.30;;;1.60;71.10;;;;;;5075851;28;20035;-73
2021/01/12 05:30:46;;;;;;;4.90;2.80;;;1.60;71.60;;;;;;5075690;28;20354;-73
2021/01/12 05:33:20;;;;;;;3.67;2.50;;;1.60;71.40;;;;;;5075640;28;20024;-72
2021/01/12 05:35:47;;;;;;;3.88;1.92;;;1.60;71.40;;;;;;5075710;28;20020;-74
2021/01/12 05:38:27;;;;;;;4.53;2.70;;;1.60;71.60;;;;;;5075602;28;20032;-73
2021/01/12 05:40:55;;;;;;;5.10;2.22;;;1.70;71.80;;;;;;5075770;28;20024;-73
2021/01/12 05:43:34;;;;;;;5.78;2.40;;;1.70;71.90;;;;;;5075333;28;20457;-72
2021/01/12 05:46:05;;;;;;;4.05;2.60;;;1.70;72.20;;;;;;5075016;28;20025;-73
2021/01/12 05:48:34;;;;;;;3.85;2.25;;;1.70;72.30;;;;;;5057913;28;20392;-72
2021/01/12 05:51:03;;;;;;;5.53;3.47;;;1.60;72.40;;;;;;5075414;28;20021;-71
2021/01/12 05:53:46;;;;;;;5.57;3.40;;;1.70;72.00;;;;;;5075274;28;20022;-71
2021/01/12 05:56:21;;;;;;;3.75;2.30;;;1.60;71.20;;;;;;5075389;28;20029;-73
2021/01/12 05:58:52;;;;;;;2.90;1.70;;;1.60;72.30;;;;;;5054492;28;20029;-72
2021/01/12 06:01:34;;;;;;;2.45;1.75;;;1.70;73.10;;;;;;5075460;28;20041;-73
2021/01/12 06:04:07;;;;;;;2.30;1.73;;;1.70;73.20;;;;;;5075473;28;20073;-73
2021/01/12 06:06:32;;;;;;;2.47;1.50;;;1.80;73.10;;;;;;5058237;28;20036;-72
2021/01/12 06:08:59;;;;;;;2.25;1.75;;;1.80;73.30;;;;;;5075274;28;20495;-72
2021/01/12 06:11:27;;;;;;;4.28;2.38;;;1.80;73.30;;;;;;5075182;28;20048;-71
2021/01/12 06:14:00;;;;;;;3.50;1.98;;;1.80;73.20;;;;;;5075230;28;20020;-72
2021/01/12 06:16:31;;;;;;;3.00;2.30;;;1.80;73.20;;;;;;5075022;28;20029;-72
2021/01/12 06:19:06;;;;;;;2.78;1.88;;;1.80;73.10;;;;;;5074969;28;20378;-74
2021/01/12 06:21:34;;;;;;;6.00;2.47;;;1.80;72.70;;;;;;5074943;28;20024;-80
2021/01/12 06:24:08;;;;;;;4.38;2.40;;;1.90;72.90;;;;;;5074818;28;20028;-72
2021/01/12 06:26:35;;;;;;;4.82;2.50;;;1.80;72.50;;;;;;5074805;28;20082;-72
2021/01/12 06:29:00;;;;;;;4.55;2.75;;;1.80;72.40;;;;;;5074682;28;20028;-72
2021/01/12 06:31:26;;;;;;;5.72;3.08;;;1.70;72.70;;;;;;5074539;28;20395;-72
2021/01/12 06:33:56;;;;;;;4.68;3.17;;;1.70;72.90;;;;;;5074604;28;20036;-72
2021/01/12 06:36:25;;;;;;;6.18;3.38;;;1.60;73.10;;;;;;5074627;28;20036;-73
2021/01/12 06:38:51;;;;;;;8.02;3.67;;;1.60;73.40;;;;;;5074966;28;20029;-72
2021/01/12 06:41:21;;;;;;;5.32;3.17;;;1.60;73.50;;;;;;5074334;28;20036;-74
2021/01/12 06:43:50;;;;;;;6.70;3.95;;;1.60;73.60;;;;;;5074431;28;20028;-72
2021/01/12 06:46:17;;;;;;;7.38;4.38;;;1.60;73.70;;;;;;5074369;28;20519;-72
2021/01/12 06:48:45;;;;;;;6.50;3.65;;;1.60;73.60;;;;;;5074376;28;20077;-75
2021/01/12 06:51:13;;;;;;;7.28;3.92;;;1.60;73.90;;;;;;5056162;28;20073;-72
2021/01/12 06:53:45;;;;;;;7.43;3.90;;;1.60;74.00;;;;;;5074250;28;20029;-71
2021/01/12 06:56:11;;;;;;;6.28;4.05;;;1.60;74.30;;;;;;5056338;28;20017;-74
2021/01/12 06:58:36;;;;;;;5.63;3.50;;;1.60;74.40;;;;;;5074046;28;20036;-73
2021/01/12 07:01:02;;;;;;;6.22;3.65;;;1.60;74.70;;;;;;5073801;28;20048;-72
2021/01/12 07:03:30;;;;;;;6.07;3.47;;;1.60;74.90;;;;;;5073798;28;20036;-72
2021/01/12 07:06:00;;;;;;;8.35;4.10;;;1.60;75.10;;;;;;5074068;28;20024;-72
2021/01/12 07:08:27;;;;;;;6.05;3.78;;;1.60;75.30;;;;;;5056296;28;20581;-72
2021/01/12 07:10:52;;;;;;;5.65;3.60;;;1.70;75.70;;;;;;5073903;28;20024;-72
2021/01/12 07:13:18;;;;;;;6.13;3.53;;;1.70;75.60;;;;;;5073814;28;20021;-73
2021/01/12 07:15:45;;;;;;;6.75;3.30;;;1.80;75.60;;;;;;5073833;28;20029;-72
2021/01/12 07:18:11;;;;;;;10.25;3.47;;;1.80;75.50;;;;;;5073851;28;20020;-72
2021/01/12 07:20:40;;;;;;;4.80;3.10;;;1.80;75.80;;;;;;5073769;28;20579;-73
2021/01/12 07:23:10;;;;;;;5.78;3.40;;;1.70;76.00;;;;;;5073603;28;20041;-73
2021/01/12 07:25:45;;;;;;;7.13;3.25;;;1.80;76.20;;;;;;5073352;28;20066;-73
2021/01/12 07:28:14;;;;;;;4.72;3.00;;;1.90;76.40;;;;;;5073472;28;20020;-73
2021/01/12 07:30:41;;;;;;;4.05;2.35;;;1.90;76.50;;;;;;5073550;28;20381;-73
2021/01/12 07:33:28;;;;;;;3.90;2.72;;;2.00;76.40;;;;;;5073400;28;20020;-73
2021/01/12 07:35:56;;;;;;;6.63;2.65;;;2.00;76.20;;;;;;5073702;28;20024;-72
2021/01/12 07:38:23;;;;;;;3.78;2.40;;;2.10;76.10;;;;;;5073330;28;20047;-72
2021/01/12 07:40:50;;;;;;;4.43;2.65;;;2.10;76.00;;;;;;5073420;28;20116;-73
2021/01/12 07:43:21;;;;;;;5.13;2.30;;;2.10;75.80;;;;;;5073108;28;20120;-73
2021/01/12 07:45:47;;;;;;;2.95;2.17;;;2.10;75.60;;;;;;5073324;28;20050;-72
2021/01/12 07:48:13;;;;;;;3.78;2.45;;;2.10;75.80;;;;;;5073383;28;20071;-74
2021/01/12 07:50:42;;;;;;;4.15;2.67;;;2.10;75.80;;;;;;5073259;28;20024;-71
2021/01/12 07:53:08;;;;;;;5.50;2.22;;;2.10;76.70;;;;;;5055010;28;20029;-71
2021/01/12 07:55:38;;;;;;;3.95;2.63;;;2.10;75.40;;;;;;5073310;28;20027;-71
2021/01/12 07:58:04;;;;;;;3.58;2.15;;;2.10;75.40;;;;;;5073374;28;20066;-72
2021/01/12 08:00:32;;;;;;;4.50;2.53;;;2.20;75.10;;;;;;5073082;28;20025;-74
2021/01/12 08:02:58;;;;;;;3.22;2.13;;;2.30;75.50;;;;;;5074182;28;20055;-72
2021/01/12 08:05:25;;;;;;;4.78;2.72;;;2.30;74.30;;;;;;5074584;28;20021;-72
2021/01/12 08:08:06;;;;;;;4.03;2.38;;;2.30;74.30;;;;;;5072861;28;20056;-73
2021/01/12 08:10:36;;;;;;;4.65;2.85;;;2.30;74.40;;;;;;5072421;28;20036;-72
2021/01/12 08:13:10;;;;;;;3.70;2.00;;;2.30;74.10;;;;;;5072724;28;20024;-76
2021/01/12 08:15:36;;;;;;;3.55;2.00;;;2.40;74.50;;;;;;5054585;28;20354;-77
2021/01/12 08:18:09;;;;;;;3.28;2.33;;;2.70;74.50;;;;;;5048860;28;20025;-76
2021/01/12 08:20:37;;;;;;;3.17;2.10;;;2.80;73.40;;;;;;5062849;28;20048;-75
2021/01/12 08:23:02;;;;;;;3.15;2.22;;;3.00;73.30;;;;;;5065411;28;20041;-76
2021/01/12 08:25:28;;;;;;;4.15;2.50;;;2.80;72.10;;;;;;5055870;28;20079;-76
2021/01/12 08:28:00;;;;;;;5.45;2.85;;;2.80;73.10;;;;;;5060411;28;20025;-73
2021/01/12 08:30:27;;;;;;;3.90;2.22;;;3.00;72.10;;;;;;5054518;28;20031;-82
2021/01/12 08:33:01;;;;;;;3.88;2.45;;;2.80;71.80;;;;;;5054552;28;20032;-83
2021/01/12 08:35:29;;;;;;;5.10;2.55;;;2.50;72.70;;;;;;5062816;28;20079;-83
2021/01/12 08:38:00;;;;;;;4.50;2.85;;;2.40;73.50;;;;;;5058459;28;20018;-77
2021/01/12 08:40:31;;;;;;;6.82;3.55;;;2.30;74.20;;;;;;5059272;28;20049;-74
2021/01/12 08:42:58;;;;;;;4.55;2.70;;;2.30;74.60;;;;;;5075318;28;20125;-75
2021/01/12 08:45:25;;;;;;;6.68;3.10;;;2.30;74.70;;;;;;5075884;28;20033;-74
2021/01/12 08:47:53;;;;;;;4.13;2.60;;;2.30;74.90;;;;;;5074377;28;20025;-79
2021/01/12 08:50:19;;;;;;;7.90;3.28;;;2.30;75.00;;;;;;5074898;28;20049;-78
2021/01/12 08:52:48;;;;;;;5.40;3.35;;;2.30;75.20;;;;;;5074248;28;20009;-82
2021/01/12 08:55:19;;;;;;;3.60;2.13;;;2.30;75.30;;;;;;5073121;28;20085;-83
2021/01/12 08:57:58;;;;;;;4.20;2.70;;;2.30;75.30;;;;;;5062408;28;20029;-83
2021/01/12 09:00:41;;;;;;;4.38;2.75;;;2.30;75.60;;;;;;5053010;28;20032;-82
2021/01/12 09:03:07;;;;;;;5.05;2.47;;;2.30;75.60;;;;;;5052926;28;20033;-81
2021/01/12 09:05:38;;;;;;;5.13;2.97;;;2.20;75.90;;;;;;5052810;28;20036;-84
2021/01/12 09:08:05;;;;;;;5.68;3.22;;;2.30;76.40;;;;;;5035179;28;20025;-84
2021/01/12 09:10:32;;;;;;;5.43;3.00;;;2.30;76.40;;;;;;5052670;28;20065;-84
2021/01/12 09:12:58;;;;;;;5.47;2.85;;;2.30;76.10;;;;;;5052707;28;20033;-82
2021/01/12 09:15:48;;;;;;;4.68;2.70;;;2.30;75.90;;;;;;5052749;28;20087;-77
2021/01/12 09:18:19;;;;;;;5.18;2.92;;;2.40;75.60;;;;;;5052634;28;20025;-83
2021/01/12 09:21:06;;;;;;;4.82;3.17;;;2.40;75.50;;;;;;5053313;28;20018;-83
2021/01/12 09:23:32;;;;;;;5.07;3.08;;;2.50;75.50;;;;;;5056207;28;20257;-82
2021/01/12 09:26:02;;;;;;;5.63;3.33;;;2.50;75.70;;;;;;5056435;28;20458;-83
2021/01/12 09:28:31;;;;;;;4.03;2.67;;;2.40;75.90;;;;;;5038434;28;20454;-82
2021/01/12 09:31:13;;;;;;;13.93;3.75;;;2.50;76.30;;;;;;5038243;28;20131;-81
2021/01/12 09:33:49;;;;;;;6.03;3.17;;;2.40;76.60;;;;;;5056184;28;20063;-81
2021/01/12 09:36:17;;;;;;;4.07;2.55;;;2.40;77.10;;;;;;5055916;28;20025;-82
2021/01/12 09:38:48;;;;;;;4.25;2.70;;;2.30;77.70;;;;;;5055999;28;20382;-82
2021/01/12 09:41:15;;;;;;;6.68;3.13;;;2.30;78.10;;;;;;5055498;28;20022;-84
2021/01/12 09:43:42;;;;;;;4.97;2.92;;;2.30;79.60;;;;;;5037987;28;20033;-83
2021/01/12 09:46:08;;;;;;;6.63;2.83;;;2.30;79.30;;;;;;5055239;28;20056;-82
2021/01/12 09:48:34;;;;;;;4.82;2.55;;;2.30;79.40;;;;;;5055628;28;20064;-80
2021/01/12 09:51:00;;;;;;;4.95;3.03;;;2.20;79.40;;;;;;5055306;28;20027;-78
2021/01/12 09:53:26;;;;;;;4.28;2.75;;;2.20;79.90;;;;;;5055641;28;20029;-83
2021/01/12 09:55:51;;;;;;;6.05;3.20;;;2.20;80.20;;;;;;5055689;28;20087;-80
2021/01/12 09:58:17;;;;;;;5.88;2.85;;;2.30;80.40;;;;;;5055421;28;20033;-80
2021/01/12 10:00:43;;;;;;;6.32;3.30;;;2.20;80.30;;;;;;5055274;28;20094;-82
2021/01/12 10:03:08;;;;;;;5.65;2.90;;;2.20;80.60;;;;;;5055230;28;20037;-80
2021/01/12 10:05:37;;;;;;;4.22;2.75;;;2.20;80.70;;;;;;5055179;28;20021;-83
2021/01/12 10:08:05;;;;;;;4.00;2.35;;;2.10;81.50;;;;;;5055384;28;20032;-81
2021/01/12 10:10:31;;;;;;;5.07;2.80;;;2.10;81.40;;;;;;5055272;28;20544;-80
2021/01/12 10:12:58;;;;;;;4.57;2.85;;;2.10;81.60;;;;;;5055137;28;20424;-74
2021/01/12 10:15:24;;;;;;;4.07;2.63;;;2.10;81.80;;;;;;5055396;28;20056;-81
2021/01/12 10:17:49;;;;;;;4.45;2.65;;;2.10;82.10;;;;;;5055389;28;20454;-83
2021/01/12 10:20:15;;;;;;;4.47;2.55;;;2.10;82.10;;;;;;5055187;28;20033;-82
2021/01/12 10:22:40;;;;;;;4.20;2.60;;;2.00;82.50;;;;;;5055224;28;20061;-82
2021/01/12 10:25:06;;;;;;;4.30;2.30;;;2.00;82.90;;;;;;5056140;28;20043;-82
2021/01/12 10:27:34;;;;;;;3.53;2.38;;;2.00;82.90;;;;;;5056110;28;20067;-84
2021/01/12 10:30:02;;;;;;;5.45;2.70;;;2.00;82.90;;;;;;5055829;28;20025;-81
2021/01/12 10:32:28;;;;;;;4.15;2.85;;;2.00;82.90;;;;;;5054994;28;20017;-83
2021/01/12 10:34:53;;;;;;;4.38;2.53;;;2.00;82.60;;;;;;5055240;28;20100;-77
2021/01/12 10:37:19;;;;;;;4.28;2.63;;;2.00;82.70;;;;;;5054720;28;20056;-76
2021/01/12 10:39:45;;;;;;;4.32;2.45;;;2.00;82.40;;;;;;5054667;28;20021;-82
2021/01/12 10:42:10;;;;;;;5.65;2.45;;;2.00;82.60;;;;;;5036698;28;20033;-82
2021/01/12 10:44:36;;;;;;;4.47;2.60;;;2.00;83.00;;;;;;5054332;28;20493;-82
2021/01/12 10:47:01;;;;;;;4.75;2.72;;;2.00;83.60;;;;;;5054330;28;20377;-81
2021/01/12 10:49:27;;;;;;;4.15;2.33;;;2.00;83.40;;;;;;5054133;28;20068;-83
2021/01/12 10:52:10;;;;;;;3.33;2.03;;;2.00;83.50;;;;;;5054374;28;20029;-82
2021/01/12 10:54:36;;;;;;;4.85;2.00;;;2.00;83.00;;;;;;5054859;28;20025;-83
2021/01/12 10:57:03;;;;;;;4.75;1.83;;;2.00;83.70;;;;;;5054439;28;20491;-82
2021/01/12 10:59:29;;;;;;;3.28;2.20;;;2.00;83.90;;;;;;5054711;28;20044;-82
2021/01/12 11:02:01;;;;;;;3.70;2.15;;;1.90;84.50;;;;;;5054150;28;20080;-82
2021/01/12 11:04:26;;;;;;;4.13;2.30;;;1.90;85.30;;;;;;5054521;28;20033;-82
2021/01/12 11:06:53;;;;;;;3.33;1.98;;;1.90;85.60;;;;;;5054682;28;20067;-83
2021/01/12 11:09:20;;;;;;;3.33;2.25;;;2.00;85.50;;;;;;5054279;28;20037;-80
2021/01/12 11:11:48;;;;;;;4.03;2.70;;;2.00;86.30;;;;;;5054357;28;20029;-83
2021/01/12 11:14:16;;;;;;;2.28;1.63;;;2.00;86.00;;;;;;5054430;28;20032;-81
2021/01/12 11:16:42;;;;;;;3.05;2.15;;;2.00;86.70;;;;;;5054380;28;20111;-84
2021/01/12 11:19:08;;;;;;;2.90;1.95;;;1.90;86.60;;;;;;5054566;28;20102;-83
2021/01/12 11:21:44;;;;;;;4.35;2.33;;;1.90;86.90;;;;;;5055266;28;20017;-82
2021/01/12 11:24:12;;;;;;;3.40;2.03;;;1.80;87.40;;;;;;5055454;28;20056;-84
2021/01/12 11:26:39;;;;;;;3.88;2.10;;;1.80;87.90;;;;;;5054774;28;20025;-83
2021/01/12 11:29:05;;;;;;;3.17;2.28;;;1.80;88.60;;;;;;5055473;28;20033;-83
2021/01/12 11:31:31;;;;;;;3.17;2.10;;;1.70;88.50;;;;;;5053990;28;20035;-83
2021/01/12 11:33:57;;;;;;;3.00;2.25;;;1.70;88.80;;;;;;5054154;28;20025;-81
2021/01/12 11:36:22;;;;;;;3.60;1.80;;;1.70;89.00;;;;;;5053803;28;20074;-80
2021/01/12 11:38:48;;;;;;;2.92;2.00;;;1.70;89.30;;;;;;5055873;28;20112;-82
2021/01/12 11:41:14;;;;;;;3.03;1.85;;;1.70;88.80;;;;;;5056108;28;20099;-83
2021/01/12 11:43:40;;;;;;;2.85;1.73;;;1.70;89.00;;;;;;5037424;28;20550;-82
2021/01/12 11:46:06;;;;;;;3.45;2.20;;;1.70;88.80;;;;;;5057094;28;20424;-82
2021/01/12 11:48:34;;;;;;;3.88;2.00;;;1.70;89.10;;;;;;5041264;28;20032;-79
2021/01/12 11:51:00;;;;;;;4.63;2.05;;;1.80;89.10;;;;;;5056601;28;20018;-82
2021/01/12 11:53:26;;;;;;;2.92;1.60;;;1.80;89.20;;;;;;5053441;28;20024;-82
2021/01/12 11:55:52;;;;;;;3.55;2.33;;;1.80;89.20;;;;;;5053517;28;20397;-83
2021/01/12 11:58:17;;;;;;;2.70;1.65;;;1.80;89.40;;;;;;5053515;28;20023;-80
2021/01/12 12:00:43;;;;;;;2.55;1.45;;;1.90;89.30;;;;;;5053315;28;20120;-83
2021/01/12 12:03:09;;;;;;;2.60;1.55;;;1.90;88.20;;;;;;5053278;28;20131;-83
2021/01/12 12:05:35;;;;;;;1.67;1.20;;;1.90;88.20;;;;;;5053486;28;20063;-82
2021/01/12 12:08:01;;;;;;;2.53;1.30;;;2.00;88.00;;;;;;5053603;28;20470;-80
2021/01/12 12:10:27;;;;;;;3.00;2.00;;;2.00;87.40;;;;;;5053158;28;20028;-81
2021/01/12 12:12:53;;;;;;;1.45;0.95;;;2.00;86.50;;;;;;5053073;28;20104;-84
2021/01/12 12:15:20;;;;;;;1.15;0.95;;;2.10;86.10;;;;;;5035408;28;20497;-82
2021/01/12 12:17:46;;;;;;;1.63;0.88;;;2.10;85.20;;;;;;5053262;28;20025;-79
2021/01/12 12:20:13;;;;;;;2.03;1.20;;;2.20;84.60;;;;;;5053233;28;20569;-81
2021/01/12 12:22:39;;;;;;;2.25;1.42;;;2.20;84.70;;;;;;5053227;28;20041;-81
2021/01/12 12:25:08;;;;;;;0.98;0.88;;;2.30;84.70;;;;;;5053520;28;20330;-78
2021/01/12 12:27:34;;;;;;;1.10;0.70;;;2.30;84.30;;;;;;5054204;28;20473;-82
2021/01/12 12:29:59;;;;;;;1.05;0.70;;;2.40;84.10;;;;;;5057123;28;20085;-82
2021/01/12 12:32:26;;;;;;;0.98;0.70;;;2.40;84.00;;;;;;5059337;28;20033;-82
2021/01/12 12:34:52;;;;;;;1.30;1.20;;;2.40;84.10;;;;;;5075248;28;20064;-75
2021/01/12 12:37:17;;;;;;;1.25;0.88;;;2.50;83.90;;;;;;5074845;28;20017;-76
2021/01/12 12:39:43;;;;;;;1.63;1.05;;;2.60;83.50;;;;;;5059275;28;20036;-83
2021/01/12 12:42:09;;;;;;;1.02;0.60;;;2.50;83.30;;;;;;5053804;28;20036;-81
2021/01/12 12:44:34;;;;;;;1.10;0.65;;;2.50;83.30;;;;;;5053518;28;20021;-83
2021/01/12 12:47:01;;;;;;;1.85;0.85;;;2.60;83.40;;;;;;5053143;28;20029;-82
2021/01/12 12:49:26;;;;;;;0.60;0.60;;;2.60;83.10;;;;;;5052615;28;20047;-77
2021/01/12 12:51:52;;;;;;;1.60;0.80;;;2.60;82.70;;;;;;5053101;28;20033;-83
2021/01/12 12:54:19;;;;;;;1.25;0.60;;;2.70;82.30;;;;;;5034942;28;20025;-78
2021/01/12 12:56:45;;;;;;;1.05;0.60;;;2.70;81.80;;;;;;5056909;28;20033;-80